createdAt,value
2018-06-23T00:01:35.646Z,4.70
2018-06-23T00:04:04.798Z,3.53
2018-06-23T00:06:33.903Z,3.57
2018-06-23T00:09:03.069Z,4.00
2018-06-23T00:11:32.240Z,4.17
2018-06-23T00:14:01.381Z,4.53
2018-06-23T00:16:30.526Z,3.57
2018-06-23T00:18:59.629Z,4.03
2018-06-23T00:21:28.952Z,3.60
2018-06-23T00:23:58.049Z,3.93
2018-06-23T00:26:30.580Z,3.83
2018-06-23T00:29:00.521Z,4.20
2018-06-23T00:31:29.676Z,5.00
2018-06-23T00:33:58.777Z,4.53
2018-06-23T00:36:27.889Z,4.37
2018-06-23T00:38:57.027Z,4.77
2018-06-23T00:41:26.145Z,3.87
2018-06-23T00:43:55.225Z,4.00
2018-06-23T00:46:24.316Z,4.40
2018-06-23T00:48:53.437Z,3.93
2018-06-23T00:51:22.526Z,4.70
2018-06-23T00:53:51.609Z,4.03
2018-06-23T00:56:20.730Z,4.07
2018-06-23T00:59:00.897Z,4.20
2018-06-23T01:01:30.121Z,4.37
2018-06-23T01:03:59.214Z,4.80
2018-06-23T01:06:28.328Z,4.63
2018-06-23T01:08:57.410Z,4.30
2018-06-23T01:11:26.537Z,4.87
2018-06-23T01:13:55.625Z,4.53
2018-06-23T01:16:24.737Z,4.80
2018-06-23T01:18:53.938Z,4.70
2018-06-23T01:21:23.021Z,4.83
2018-06-23T01:23:52.127Z,4.23
2018-06-23T01:26:21.228Z,4.80
2018-06-23T01:28:50.341Z,4.87
2018-06-23T01:31:19.453Z,4.97
2018-06-23T01:33:48.557Z,4.10
2018-06-23T01:36:17.662Z,4.27
2018-06-23T01:38:46.781Z,4.70
2018-06-23T01:41:15.881Z,5.03
2018-06-23T01:43:44.997Z,4.37
2018-06-23T01:46:14.113Z,5.03
2018-06-23T01:48:43.206Z,5.17
2018-06-23T01:51:12.414Z,5.00
2018-06-23T01:53:41.497Z,4.43
2018-06-23T01:56:10.613Z,4.53
2018-06-23T01:58:39.716Z,4.43
2018-06-23T02:01:08.818Z,3.80
2018-06-23T02:03:37.921Z,4.97
2018-06-23T02:06:07.049Z,4.20
2018-06-23T02:08:36.216Z,4.20
2018-06-23T02:11:05.378Z,3.53
2018-06-23T02:13:34.469Z,4.23
2018-06-23T02:16:08.824Z,4.70
2018-06-23T02:18:43.121Z,4.67
2018-06-23T02:21:17.473Z,5.60
2018-06-23T02:23:51.841Z,5.33
2018-06-23T02:26:26.269Z,4.83
2018-06-23T02:29:00.737Z,4.43
2018-06-23T02:31:35.139Z,4.90
2018-06-23T02:34:09.484Z,5.00
2018-06-23T02:36:38.585Z,4.13
2018-06-23T02:39:09.041Z,4.57
2018-06-23T02:41:38.141Z,5.30
2018-06-23T02:44:07.290Z,5.27
2018-06-23T02:46:36.422Z,6.33
2018-06-23T02:49:05.545Z,4.90
2018-06-23T02:51:34.653Z,5.63
2018-06-23T02:54:03.794Z,4.90
2018-06-23T02:56:32.889Z,5.33
2018-06-23T02:59:01.991Z,5.27
2018-06-23T03:01:31.119Z,5.30
2018-06-23T03:04:00.192Z,6.43
2018-06-23T03:06:29.297Z,5.57
2018-06-23T03:08:58.393Z,5.60
2018-06-23T03:11:27.521Z,6.10
2018-06-23T03:13:56.662Z,6.10
2018-06-23T03:16:25.777Z,6.50
2018-06-23T03:18:54.889Z,5.60
2018-06-23T03:21:23.988Z,5.43
2018-06-23T03:23:53.185Z,5.70
2018-06-23T03:26:22.353Z,5.37
2018-06-23T03:28:51.429Z,5.03
2018-06-23T03:31:20.517Z,5.40
2018-06-23T03:33:49.607Z,5.60
2018-06-23T03:36:18.697Z,4.57
2018-06-23T03:38:47.787Z,4.10
2018-06-23T03:41:16.894Z,4.60
2018-06-23T03:43:46.017Z,4.30
2018-06-23T03:46:15.068Z,4.97
2018-06-23T03:48:44.197Z,4.73
2018-06-23T03:51:13.289Z,5.40
2018-06-23T03:53:42.470Z,5.07
2018-06-23T03:56:11.586Z,5.03
2018-06-23T03:58:40.681Z,4.83
2018-06-23T04:01:09.868Z,5.53
2018-06-23T04:03:39.029Z,4.87
2018-06-23T04:06:08.141Z,5.20
2018-06-23T04:08:37.217Z,4.47
2018-06-23T04:11:06.322Z,5.03
2018-06-23T04:13:35.413Z,5.40
2018-06-23T04:16:04.626Z,5.37
2018-06-23T04:18:33.717Z,5.70
2018-06-23T04:21:02.857Z,5.33
2018-06-23T04:23:31.993Z,4.97
2018-06-23T04:26:01.169Z,5.33
2018-06-23T04:28:30.185Z,5.23
2018-06-23T04:30:59.289Z,5.40
2018-06-23T04:33:29.404Z,4.80
2018-06-23T04:35:58.529Z,4.70
2018-06-23T04:38:27.758Z,5.80
2018-06-23T04:40:56.865Z,4.70
2018-06-23T04:43:25.973Z,5.13
2018-06-23T04:45:55.090Z,6.00
2018-06-23T04:48:24.465Z,5.87
2018-06-23T04:50:53.551Z,5.53
2018-06-23T04:53:22.750Z,5.17
2018-06-23T04:55:52.341Z,5.40
2018-06-23T04:58:21.482Z,6.60
2018-06-23T05:00:50.622Z,6.10
2018-06-23T05:03:19.729Z,5.70
2018-06-23T05:05:48.833Z,5.73
2018-06-23T05:08:18.349Z,5.70
2018-06-23T05:10:47.429Z,6.53
2018-06-23T05:13:16.525Z,5.43
2018-06-23T05:15:45.657Z,5.40
2018-06-23T05:18:14.761Z,5.73
2018-06-23T05:20:43.849Z,5.63
2018-06-23T05:23:12.941Z,6.17
2018-06-23T05:25:42.113Z,6.53
2018-06-23T05:28:11.322Z,5.20
2018-06-23T05:30:40.449Z,6.40
2018-06-23T05:33:09.533Z,6.10
2018-06-23T05:35:38.630Z,5.50
2018-06-23T05:38:08.133Z,5.37
2018-06-23T05:40:37.233Z,5.93
2018-06-23T05:43:06.341Z,6.07
2018-06-23T05:45:35.432Z,6.27
2018-06-23T05:48:04.601Z,6.00
2018-06-23T05:50:33.729Z,5.93
2018-06-23T05:53:02.844Z,6.77
2018-06-23T05:55:31.977Z,5.17
2018-06-23T05:58:01.118Z,5.73
2018-06-23T06:00:30.200Z,6.03
2018-06-23T06:02:59.369Z,5.50
2018-06-23T06:05:28.577Z,4.97
2018-06-23T06:07:57.697Z,6.03
2018-06-23T06:10:27.187Z,5.27
2018-06-23T06:12:56.427Z,5.23
2018-06-23T06:15:25.530Z,5.20
2018-06-23T06:17:54.639Z,6.17
2018-06-23T06:20:23.750Z,5.00
2018-06-23T06:22:52.897Z,6.33
2018-06-23T06:25:22.413Z,4.97
2018-06-23T06:27:51.510Z,6.20
2018-06-23T06:30:20.657Z,5.00
2018-06-23T06:32:49.757Z,5.43
2018-06-23T06:35:19.021Z,4.80
2018-06-23T06:37:48.077Z,4.60
2018-06-23T06:40:17.169Z,5.13
2018-06-23T06:42:47.337Z,4.40
2018-06-23T06:45:16.549Z,4.27
2018-06-23T06:47:45.757Z,4.43
2018-06-23T06:50:15.927Z,4.47
2018-06-23T06:52:45.205Z,4.30
2018-06-23T06:55:15.345Z,4.17
2018-06-23T06:57:44.582Z,4.10
2018-06-23T07:00:13.914Z,4.47
2018-06-23T07:02:43.141Z,4.67
2018-06-23T07:05:12.285Z,4.73
2018-06-23T07:07:41.485Z,3.70
2018-06-23T07:10:14.023Z,4.80
2018-06-23T07:12:43.185Z,4.83
2018-06-23T07:15:14.932Z,4.47
2018-06-23T07:17:45.337Z,4.73
2018-06-23T07:20:15.301Z,4.47
2018-06-23T07:22:44.554Z,4.60
2018-06-23T07:25:13.686Z,4.70
2018-06-23T07:27:42.893Z,4.40
2018-06-23T07:30:13.098Z,5.00
2018-06-23T07:32:42.294Z,5.50
2018-06-23T07:35:11.556Z,4.43
2018-06-23T07:37:40.529Z,5.23
2018-06-23T07:40:09.738Z,5.00
2018-06-23T07:42:39.197Z,4.50
2018-06-23T07:45:09.433Z,4.70
2018-06-23T07:47:38.609Z,4.67
2018-06-23T07:50:07.691Z,4.40
2018-06-23T07:52:36.781Z,4.73
2018-06-23T07:55:05.981Z,4.50
2018-06-23T07:57:35.069Z,4.50
2018-06-23T08:00:04.369Z,4.57
2018-06-23T08:02:33.465Z,4.97
2018-06-23T08:05:02.569Z,4.10
2018-06-23T08:07:31.682Z,4.90
2018-06-23T08:10:00.773Z,4.87
2018-06-23T08:12:29.889Z,4.37
2018-06-23T08:14:59.038Z,4.33
2018-06-23T08:17:28.181Z,4.07
2018-06-23T08:19:57.285Z,3.90
2018-06-23T08:22:26.437Z,4.20
2018-06-23T08:24:55.621Z,4.73
2018-06-23T08:27:24.649Z,3.90
2018-06-23T08:29:53.863Z,4.37
2018-06-23T08:32:22.941Z,3.50
2018-06-23T08:34:52.021Z,4.00
2018-06-23T08:37:21.129Z,4.13
2018-06-23T08:39:50.237Z,4.00
2018-06-23T08:42:19.326Z,3.93
2018-06-23T08:44:48.425Z,3.23
2018-06-23T08:47:17.505Z,3.80
2018-06-23T08:49:46.593Z,4.33
2018-06-23T08:52:15.709Z,3.60
2018-06-23T08:54:44.812Z,4.13
2018-06-23T08:57:13.929Z,4.33
2018-06-23T08:59:43.162Z,4.00
2018-06-23T09:02:12.281Z,3.77
2018-06-23T09:04:41.395Z,4.37
2018-06-23T09:07:10.565Z,4.53
2018-06-23T09:09:39.653Z,4.50
2018-06-23T09:12:08.745Z,3.90
2018-06-23T09:14:38.241Z,4.10
2018-06-23T09:17:07.345Z,3.80
2018-06-23T09:19:36.508Z,4.50
2018-06-23T09:22:05.582Z,4.10
2018-06-23T09:24:34.761Z,3.53
2018-06-23T09:27:03.937Z,3.50
2018-06-23T09:29:33.088Z,3.33
2018-06-23T09:32:02.212Z,4.60
2018-06-23T09:34:31.377Z,5.30
2018-06-23T09:37:00.444Z,6.03
2018-06-23T09:39:29.654Z,5.10
2018-06-23T09:41:58.753Z,4.80
2018-06-23T09:44:27.898Z,5.10
2018-06-23T09:46:57.060Z,4.83
2018-06-23T09:49:27.113Z,4.50
2018-06-23T09:51:56.265Z,4.77
2018-06-23T09:54:25.403Z,4.77
2018-06-23T09:56:54.657Z,4.63
2018-06-23T09:59:23.771Z,4.97
2018-06-23T10:01:52.994Z,4.47
2018-06-23T10:04:22.095Z,5.10
2018-06-23T10:06:51.204Z,4.60
2018-06-23T10:09:20.309Z,4.83
2018-06-23T10:11:49.505Z,4.30
2018-06-23T10:14:18.602Z,4.83
2018-06-23T10:16:47.789Z,4.30
2018-06-23T10:19:16.889Z,5.10
2018-06-23T10:21:45.985Z,4.63
2018-06-23T10:24:15.086Z,4.20
2018-06-23T10:26:44.213Z,4.87
2018-06-23T10:29:14.021Z,4.57
2018-06-23T10:31:43.175Z,4.17
2018-06-23T10:34:12.314Z,4.23
2018-06-23T10:36:41.478Z,4.13
2018-06-23T10:39:11.714Z,4.30
2018-06-23T10:41:41.480Z,4.00
2018-06-23T10:44:10.576Z,4.10
2018-06-23T10:46:39.705Z,4.03
2018-06-23T10:49:08.823Z,4.13
2018-06-23T10:51:38.188Z,4.30
2018-06-23T10:54:07.319Z,3.87
2018-06-23T10:56:36.450Z,4.63
2018-06-23T10:59:05.721Z,4.20
2018-06-23T11:01:34.824Z,4.43
2018-06-23T11:04:03.953Z,4.50
2018-06-23T11:06:33.094Z,4.67
2018-06-23T11:09:02.186Z,4.60
2018-06-23T11:11:31.305Z,4.50
2018-06-23T11:14:00.410Z,4.93
2018-06-23T11:16:29.501Z,4.37
2018-06-23T11:18:58.593Z,5.03
2018-06-23T11:21:27.771Z,4.97
2018-06-23T11:23:56.899Z,5.60
2018-06-23T11:26:26.057Z,6.07
2018-06-23T11:28:55.203Z,6.97
2018-06-23T11:31:24.305Z,6.30
2018-06-23T11:33:53.404Z,5.27
2018-06-23T11:36:22.509Z,5.60
2018-06-23T11:38:51.871Z,4.97
2018-06-23T11:41:21.007Z,4.70
2018-06-23T11:43:50.034Z,4.83
2018-06-23T11:46:19.132Z,4.90
2018-06-23T11:48:48.226Z,4.97
2018-06-23T11:51:17.512Z,4.97
2018-06-23T11:53:46.660Z,5.07
2018-06-23T11:56:15.784Z,5.27
2018-06-23T11:58:44.935Z,4.80
2018-06-23T12:01:14.269Z,5.30
2018-06-23T12:03:43.521Z,5.07
2018-06-23T12:06:12.699Z,5.17
2018-06-23T12:08:41.809Z,5.33
2018-06-23T12:11:10.914Z,5.50
2018-06-23T12:13:40.021Z,5.30
2018-06-23T12:16:09.105Z,4.83
2018-06-23T12:18:38.225Z,5.00
2018-06-23T12:21:07.494Z,5.17
2018-06-23T12:23:36.593Z,4.90
2018-06-23T12:26:05.745Z,4.10
2018-06-23T12:28:34.857Z,3.87
2018-06-23T12:31:04.061Z,3.70
2018-06-23T12:33:33.449Z,3.63
2018-06-23T12:36:02.612Z,3.80
2018-06-23T12:38:32.049Z,3.30
2018-06-23T12:41:01.171Z,3.40
2018-06-23T12:43:30.267Z,3.30
2018-06-23T12:45:59.372Z,3.67
2018-06-23T12:48:28.485Z,4.40
2018-06-23T12:50:57.587Z,3.53
2018-06-23T12:53:26.677Z,3.93
2018-06-23T12:55:55.839Z,3.47
2018-06-23T12:58:24.961Z,4.10
2018-06-23T13:00:54.066Z,3.93
2018-06-23T13:03:23.169Z,4.67
2018-06-23T13:05:52.365Z,4.57
2018-06-23T13:08:21.460Z,5.43
2018-06-23T13:10:50.597Z,4.30
2018-06-23T13:13:19.736Z,4.00
2018-06-23T13:15:48.833Z,3.87
2018-06-23T13:18:17.925Z,3.97
2018-06-23T13:20:47.106Z,3.63
2018-06-23T13:23:16.214Z,4.03
2018-06-23T13:25:45.309Z,3.53
2018-06-23T13:28:14.430Z,3.47
2018-06-23T13:30:43.615Z,3.97
2018-06-23T13:33:12.701Z,3.27
2018-06-23T13:35:41.838Z,3.27
2018-06-23T13:38:10.918Z,3.60
2018-06-23T13:40:40.029Z,3.30
2018-06-23T13:43:09.211Z,2.97
2018-06-23T13:45:38.306Z,3.43
2018-06-23T13:48:07.528Z,4.10
2018-06-23T13:50:36.708Z,4.23
2018-06-23T13:53:05.845Z,4.57
2018-06-23T13:55:34.921Z,4.37
2018-06-23T13:58:04.170Z,4.03
2018-06-23T14:00:33.259Z,4.10
2018-06-23T14:03:02.351Z,4.70
2018-06-23T14:05:31.457Z,4.17
2018-06-23T14:08:01.269Z,4.97
2018-06-23T14:10:30.362Z,4.63
2018-06-23T14:12:59.476Z,4.70
2018-06-23T14:15:29.275Z,4.80
2018-06-23T14:17:59.451Z,4.63
2018-06-23T14:20:28.582Z,5.00
2018-06-23T14:22:57.699Z,5.23
2018-06-23T14:25:26.813Z,5.20
2018-06-23T14:27:55.925Z,5.93
2018-06-23T14:30:25.097Z,5.60
2018-06-23T14:32:54.253Z,5.27
2018-06-23T14:35:23.385Z,4.43
2018-06-23T14:37:52.513Z,4.83
2018-06-23T14:40:21.593Z,4.40
2018-06-23T14:42:50.755Z,4.10
2018-06-23T14:45:19.908Z,4.00
2018-06-23T14:47:49.001Z,3.83
2018-06-23T14:50:18.127Z,3.90
2018-06-23T14:52:47.266Z,4.10
2018-06-23T14:55:16.353Z,4.70
2018-06-23T14:57:45.441Z,4.60
2018-06-23T15:00:14.557Z,4.60
2018-06-23T15:02:44.493Z,4.37
2018-06-23T15:05:13.629Z,3.97
2018-06-23T15:07:42.730Z,4.50
2018-06-23T15:10:23.049Z,4.30
2018-06-23T15:13:03.661Z,4.50
2018-06-23T15:15:32.792Z,3.80
2018-06-23T15:18:01.961Z,4.07
2018-06-23T15:20:31.058Z,4.30
2018-06-23T15:23:04.209Z,3.60
2018-06-23T15:25:33.410Z,4.40
2018-06-23T15:28:02.494Z,4.40
2018-06-23T15:30:31.597Z,4.70
2018-06-23T15:33:00.781Z,4.80
2018-06-23T15:35:29.958Z,4.10
2018-06-23T15:37:59.042Z,4.30
2018-06-23T15:40:28.171Z,3.37
2018-06-23T15:42:57.289Z,4.17
2018-06-23T15:45:26.433Z,3.90
2018-06-23T15:47:55.625Z,3.50
2018-06-23T15:50:25.217Z,3.93
2018-06-23T15:52:54.357Z,3.57
2018-06-23T15:55:23.553Z,3.80
2018-06-23T15:57:52.661Z,4.33
2018-06-23T16:00:21.877Z,4.17
2018-06-23T16:02:51.096Z,4.07
2018-06-23T16:05:20.172Z,4.30
2018-06-23T16:07:49.278Z,4.10
2018-06-23T16:10:21.853Z,3.87
2018-06-23T16:12:51.201Z,4.00
2018-06-23T16:15:20.311Z,3.87
2018-06-23T16:17:49.385Z,4.27
2018-06-23T16:20:18.469Z,4.23
2018-06-23T16:22:48.064Z,4.67
2018-06-23T16:25:17.381Z,4.20
2018-06-23T16:27:46.571Z,4.00
2018-06-23T16:30:15.693Z,4.00
2018-06-23T16:32:44.781Z,3.63
2018-06-23T16:35:14.115Z,3.47
2018-06-23T16:37:43.134Z,4.07
2018-06-23T16:40:12.238Z,3.80
2018-06-23T16:42:41.321Z,3.87
2018-06-23T16:45:10.430Z,4.60
2018-06-23T16:47:39.505Z,3.90
2018-06-23T16:50:08.626Z,4.20
2018-06-23T16:52:37.732Z,3.70
2018-06-23T16:55:07.797Z,4.60
2018-06-23T16:57:36.970Z,4.67
2018-06-23T17:00:06.150Z,4.10
2018-06-23T17:02:35.249Z,3.60
2018-06-23T17:05:04.344Z,3.77
2018-06-23T17:07:37.304Z,3.83
2018-06-23T17:10:06.453Z,3.27
2018-06-23T17:15:32.886Z,3.30
2018-06-23T17:18:01.970Z,3.80
2018-06-23T17:20:31.117Z,3.87
2018-06-23T17:23:00.213Z,3.10
2018-06-23T17:25:29.317Z,3.87
2018-06-23T17:27:58.468Z,3.50
2018-06-23T17:30:27.566Z,3.57
2018-06-23T17:32:56.665Z,3.30
2018-06-23T17:35:25.838Z,3.50
2018-06-23T17:37:54.961Z,3.20
2018-06-23T17:40:24.085Z,3.57
2018-06-23T17:42:53.694Z,3.50
2018-06-23T17:45:22.809Z,3.10
2018-06-23T17:47:52.019Z,3.20
2018-06-23T17:50:21.121Z,3.33
2018-06-23T17:52:50.224Z,3.47
2018-06-23T17:55:19.318Z,3.23
2018-06-23T17:57:48.642Z,3.20
2018-06-23T18:00:17.521Z,3.50
2018-06-23T18:02:46.705Z,3.60
2018-06-23T18:05:15.833Z,3.27
2018-06-23T18:07:44.990Z,3.60
2018-06-23T18:10:14.093Z,3.30
2018-06-23T18:12:43.200Z,3.00
2018-06-23T18:15:12.301Z,2.90
2018-06-23T18:17:41.397Z,3.17
2018-06-23T18:20:10.551Z,3.23
2018-06-23T18:22:39.669Z,3.03
2018-06-23T18:25:08.777Z,3.87
2018-06-23T18:27:37.853Z,3.90
2018-06-23T18:30:07.087Z,3.63
2018-06-23T18:32:36.205Z,3.60
2018-06-23T18:35:05.321Z,3.53
2018-06-23T18:37:34.429Z,4.00
2018-06-23T18:40:03.593Z,3.77
2018-06-23T18:42:32.706Z,3.67
2018-06-23T18:45:01.814Z,4.27
2018-06-23T18:47:30.913Z,4.13
2018-06-23T18:49:59.999Z,4.57
2018-06-23T18:52:29.089Z,4.10
2018-06-23T18:54:58.189Z,3.63
2018-06-23T18:57:27.289Z,4.40
2018-06-23T18:59:56.409Z,3.90
2018-06-23T19:02:30.826Z,4.00
2018-06-23T19:04:59.951Z,3.97
2018-06-23T19:07:29.448Z,3.83
2018-06-23T19:09:58.573Z,3.73
2018-06-23T19:12:27.688Z,4.27
2018-06-23T19:14:56.765Z,3.53
2018-06-23T19:17:25.897Z,3.37
2018-06-23T19:19:55.049Z,4.00
2018-06-23T19:22:24.189Z,3.43
2018-06-23T19:24:53.285Z,3.67
2018-06-23T19:27:22.408Z,3.20
2018-06-23T19:29:51.518Z,3.30
2018-06-23T19:32:20.674Z,3.67
2018-06-23T19:34:49.773Z,3.33
2018-06-23T19:37:18.891Z,3.87
2018-06-23T19:39:47.999Z,3.83
2018-06-23T19:42:17.102Z,3.50
2018-06-23T19:44:46.221Z,3.00
2018-06-23T19:47:15.786Z,3.20
2018-06-23T19:49:44.957Z,3.37
2018-06-23T19:52:14.062Z,3.60
2018-06-23T19:54:43.389Z,3.90
2018-06-23T19:57:12.478Z,3.70
2018-06-23T19:59:41.570Z,3.90
2018-06-23T20:02:10.662Z,3.33
2018-06-23T20:04:39.747Z,3.50
2018-06-23T20:07:08.955Z,3.30
2018-06-23T20:09:38.038Z,3.70
2018-06-23T20:12:08.505Z,3.90
2018-06-23T20:14:37.665Z,3.47
2018-06-23T20:17:06.745Z,3.77
2018-06-23T20:19:35.850Z,3.67
2018-06-23T20:22:05.071Z,3.53
2018-06-23T20:24:34.149Z,3.90
2018-06-23T20:27:03.246Z,4.13
2018-06-23T20:29:32.345Z,3.80
2018-06-23T20:32:01.701Z,3.47
2018-06-23T20:34:30.818Z,3.30
2018-06-23T20:36:59.918Z,3.77
2018-06-23T20:39:29.037Z,3.70
2018-06-23T20:41:58.127Z,4.00
2018-06-23T20:44:27.229Z,3.63
2018-06-23T20:46:56.325Z,3.50
2018-06-23T20:49:25.425Z,3.50
2018-06-23T20:51:54.554Z,3.73
2018-06-23T20:54:23.674Z,4.17
2018-06-23T20:56:52.762Z,4.40
2018-06-23T20:59:21.875Z,4.43
2018-06-23T21:01:50.977Z,5.17
2018-06-23T21:04:20.074Z,5.00
2018-06-23T21:06:49.182Z,5.23
2018-06-23T21:09:18.287Z,7.27
2018-06-23T21:11:47.377Z,5.70
2018-06-23T21:14:16.481Z,5.07
2018-06-23T21:16:45.585Z,5.93
2018-06-23T21:19:14.697Z,4.50
2018-06-23T21:21:43.801Z,4.00
2018-06-23T21:24:12.898Z,3.73
2018-06-23T21:26:42.018Z,3.70
2018-06-23T21:29:12.181Z,3.90
2018-06-23T21:31:41.275Z,4.63
2018-06-23T21:34:10.445Z,4.27
2018-06-23T21:36:39.690Z,3.63
2018-06-23T21:39:09.877Z,4.60
2018-06-23T21:41:39.105Z,4.70
2018-06-23T21:44:08.477Z,5.17
2018-06-23T21:46:37.585Z,5.20
2018-06-23T21:49:06.813Z,5.23
2018-06-23T21:51:36.030Z,4.80
2018-06-23T21:54:05.133Z,5.00
2018-06-23T21:56:34.234Z,4.40
2018-06-23T21:59:03.349Z,4.73
2018-06-23T22:01:32.441Z,4.60
2018-06-23T22:04:01.554Z,4.40
2018-06-23T22:06:30.654Z,5.00
2018-06-23T22:08:59.790Z,5.00
2018-06-23T22:11:28.865Z,4.17
2018-06-23T22:13:57.996Z,4.73
2018-06-23T22:16:27.811Z,5.13
2018-06-23T22:18:56.966Z,5.10
2018-06-23T22:21:26.210Z,4.47
2018-06-23T22:23:55.309Z,4.77
2018-06-23T22:26:24.426Z,5.33
2018-06-23T22:28:53.565Z,4.63
2018-06-23T22:31:22.753Z,4.80
2018-06-23T22:33:51.849Z,5.20
2018-06-23T22:36:20.989Z,5.97
2018-06-23T22:38:50.133Z,6.20
2018-06-23T22:41:20.193Z,5.67
2018-06-23T22:43:49.300Z,6.63
2018-06-23T22:46:18.406Z,5.40
2018-06-23T22:48:47.510Z,5.23
2018-06-23T22:51:16.746Z,5.73
2018-06-23T22:53:45.871Z,5.50
2018-06-23T22:56:14.977Z,5.47
2018-06-23T22:58:44.125Z,7.13
2018-06-23T23:01:13.225Z,5.23
2018-06-23T23:03:42.330Z,5.57
2018-06-23T23:06:11.422Z,5.10
2018-06-23T23:08:40.525Z,6.00
2018-06-23T23:11:09.669Z,5.40
2018-06-23T23:13:38.797Z,6.00
2018-06-23T23:16:07.890Z,5.53
2018-06-23T23:18:37.002Z,5.43
2018-06-23T23:21:06.142Z,5.67
2018-06-23T23:23:35.330Z,5.13
2018-06-23T23:26:04.462Z,6.13
2018-06-23T23:28:33.562Z,5.80
2018-06-23T23:31:02.685Z,5.03
2018-06-23T23:33:31.777Z,5.47
2018-06-23T23:36:00.874Z,5.33
2018-06-23T23:38:29.964Z,5.07
2018-06-23T23:40:59.065Z,5.20
2018-06-23T23:43:28.163Z,5.80
2018-06-23T23:45:57.274Z,5.77
2018-06-23T23:48:26.365Z,5.80
2018-06-23T23:50:55.534Z,5.83
2018-06-23T23:53:24.617Z,5.90
2018-06-23T23:55:53.711Z,5.30
2018-06-23T23:58:22.809Z,5.90
